Time;durP1;ratioP1;P1;durP2;ratioP2;P2;SDS_P1;SDS_P2;PMS_P1;PMS_P2;Temp;Humidity;BMP_temperature;BMP_pressure;BME280_temperature;BME280_humidity;BME280_pressure;Samples;Min_cycle;Max_cycle;Signal;HPM_P1;HPM_P2
2021/12/31 00:02:24;;;;;;;;;;;23.10;42.30;;;;;;5124032;28;19941;-59
2021/12/31 00:04:50;;;;;;;;;;;23.00;42.50;;;;;;5122823;28;19931;-62
2021/12/31 00:07:16;;;;;;;;;;;23.10;42.20;;;;;;5128173;28;19930;-62
2021/12/31 00:09:42;;;;;;;;;;;23.00;42.30;;;;;;5122960;28;19989;-55
2021/12/31 00:12:08;;;;;;;;;;;23.10;42.10;;;;;;5104317;28;20393;-60
2021/12/31 00:14:34;;;;;;;;;;;23.10;41.90;;;;;;5127904;28;20393;-56
2021/12/31 00:17:00;;;;;;;;;;;22.90;42.40;;;;;;5122361;28;19924;-55
2021/12/31 00:19:29;;;;;;;;;;;23.10;41.90;;;;;;5105649;28;19935;-60
2021/12/31 00:21:55;;;;;;;;;;;23.10;41.70;;;;;;5109345;28;19972;-60
2021/12/31 00:24:24;;;;;;;;;;;23.10;41.90;;;;;;5122536;28;19924;-62
2021/12/31 00:26:49;;;;;;;;;;;23.10;41.80;;;;;;5127713;28;19978;-55
2021/12/31 00:29:16;;;;;;;;;;;22.90;42.10;;;;;;5122354;27;19932;-65
2021/12/31 00:31:41;;;;;;;;;;;23.20;41.70;;;;;;5122256;28;20021;-59
2021/12/31 00:34:07;;;;;;;;;;;22.90;42.00;;;;;;5127332;28;19997;-61
2021/12/31 00:36:40;;;;;;;;;;;22.90;42.00;;;;;;5122206;28;19972;-63
2021/12/31 00:39:05;;;;;;;;;;;23.00;41.90;;;;;;5122515;28;20615;-60
2021/12/31 00:41:31;;;;;;;;;;;22.80;42.70;;;;;;5127572;28;19927;-61
2021/12/31 00:43:57;;;;;;;;;;;23.00;42.30;;;;;;5122125;28;20351;-63
2021/12/31 00:46:23;;;;;;;;;;;22.80;42.90;;;;;;5127485;28;19924;-60
2021/12/31 00:48:48;;;;;;;;;;;23.20;42.00;;;;;;5122440;28;19924;-60
2021/12/31 00:51:14;;;;;;;;;;;22.90;42.50;;;;;;5121923;28;20302;-63
2021/12/31 00:53:40;;;;;;;;;;;23.20;41.90;;;;;;5126924;28;19980;-62
2021/12/31 00:56:06;;;;;;;;;;;22.80;42.90;;;;;;5122344;28;20018;-60
2021/12/31 00:58:31;;;;;;;;;;;23.20;42.30;;;;;;5121917;28;20619;-60
2021/12/31 01:00:57;;;;;;;;;;;22.80;43.00;;;;;;5127418;28;19924;-63
2021/12/31 01:03:23;;;;;;;;;;;23.10;42.40;;;;;;5121919;28;19923;-63
2021/12/31 01:05:49;;;;;;;;;;;22.90;43.00;;;;;;5125625;28;20374;-60
2021/12/31 01:08:14;;;;;;;;;;;23.20;42.50;;;;;;5123731;28;19954;-61
2021/12/31 01:10:40;;;;;;;;;;;22.70;43.40;;;;;;5101884;28;19927;-63
2021/12/31 01:13:11;;;;;;;;;;;23.00;42.70;;;;;;5127162;28;19927;-60
2021/12/31 01:15:43;;;;;;;;;;;22.90;42.70;;;;;;5122195;28;19930;-60
2021/12/31 01:20:35;;;;;;;;;;;22.90;42.60;;;;;;5127158;28;19930;-54
2021/12/31 01:23:01;;;;;;;;;;;23.00;42.50;;;;;;5121755;28;20941;-62
2021/12/31 01:25:27;;;;;;;;;;;23.00;42.30;;;;;;5121486;28;20467;-61
2021/12/31 01:27:53;;;;;;;;;;;23.00;42.30;;;;;;5126855;28;20371;-66
2021/12/31 01:30:18;;;;;;;;;;;23.00;42.20;;;;;;5121400;28;19923;-61
2021/12/31 01:32:45;;;;;;;;;;;22.90;42.70;;;;;;5127129;28;19931;-61
2021/12/31 01:35:11;;;;;;;;;;;23.00;42.70;;;;;;5121827;28;20153;-62
2021/12/31 01:37:37;;;;;;;;;;;22.80;43.20;;;;;;5103317;28;19963;-60
2021/12/31 01:40:03;;;;;;;;;;;23.10;42.40;;;;;;5126484;28;20021;-61
2021/12/31 01:42:32;;;;;;;;;;;22.90;42.50;;;;;;5120401;27;19923;-64
2021/12/31 01:45:05;;;;;;;;;;;23.20;42.10;;;;;;5121266;28;20092;-60
2021/12/31 01:47:45;;;;;;;;;;;22.90;42.50;;;;;;5126245;28;19959;-61
2021/12/31 01:50:10;;;;;;;;;;;23.00;42.20;;;;;;5121298;28;19927;-60
2021/12/31 01:52:39;;;;;;;;;;;22.80;42.70;;;;;;5121289;28;19930;-60
2021/12/31 01:55:05;;;;;;;;;;;23.10;42.30;;;;;;5126642;28;19924;-62
2021/12/31 01:57:32;;;;;;;;;;;22.70;43.20;;;;;;5120906;28;19939;-61
2021/12/31 01:59:58;;;;;;;;;;;23.00;42.50;;;;;;5125742;28;19934;-61
2021/12/31 02:02:23;;;;;;;;;;;22.80;42.80;;;;;;5121715;28;19970;-60
2021/12/31 02:04:49;;;;;;;;;;;22.90;42.50;;;;;;5120640;28;19951;-59
2021/12/31 02:07:15;;;;;;;;;;;22.80;42.70;;;;;;5106178;28;19924;-61
2021/12/31 02:09:48;;;;;;;;;;;22.80;42.80;;;;;;5120976;28;20366;-57
2021/12/31 02:12:14;;;;;;;;;;;23.00;42.30;;;;;;5121073;28;19924;-62
2021/12/31 02:14:40;;;;;;;;;;;22.70;42.90;;;;;;5126243;28;20038;-51
2021/12/31 02:17:08;;;;;;;;;;;22.90;42.30;;;;;;5120658;28;19924;-63
2021/12/31 02:19:33;;;;;;;;;;;22.70;42.40;;;;;;5120722;28;19924;-61
2021/12/31 02:22:00;;;;;;;;;;;22.90;42.20;;;;;;5125833;28;19923;-64
2021/12/31 02:24:26;;;;;;;;;;;22.80;42.20;;;;;;5120199;28;19930;-61
2021/12/31 02:26:51;;;;;;;;;;;22.90;42.10;;;;;;5125700;28;19927;-55
2021/12/31 02:29:17;;;;;;;;;;;22.80;41.80;;;;;;5121010;28;20018;-60
2021/12/31 02:31:43;;;;;;;;;;;22.90;41.90;;;;;;5120639;28;19964;-60
2021/12/31 02:34:09;;;;;;;;;;;22.90;41.70;;;;;;5125824;28;19974;-58
2021/12/31 02:36:35;;;;;;;;;;;23.00;41.60;;;;;;5101326;28;19924;-59
2021/12/31 02:39:01;;;;;;;;;;;22.90;41.60;;;;;;5120617;28;19923;-60
2021/12/31 02:41:26;;;;;;;;;;;22.90;41.60;;;;;;5125507;28;19923;-60
2021/12/31 02:43:52;;;;;;;;;;;23.00;41.30;;;;;;5119984;28;20336;-56
2021/12/31 02:46:18;;;;;;;;;;;22.90;41.40;;;;;;5125654;28;19927;-54
2021/12/31 02:48:44;;;;;;;;;;;22.90;41.30;;;;;;5120448;28;19923;-62
2021/12/31 02:51:10;;;;;;;;;;;22.70;41.50;;;;;;5120169;28;19941;-55
2021/12/31 02:53:36;;;;;;;;;;;22.90;41.10;;;;;;5125679;27;19923;-62
2021/12/31 02:56:03;;;;;;;;;;;22.80;41.20;;;;;;5120293;28;20138;-58
2021/12/31 02:58:29;;;;;;;;;;;23.00;40.90;;;;;;5119876;28;20582;-62
2021/12/31 03:00:55;;;;;;;;;;;22.40;41.90;;;;;;5125239;28;19935;-61
2021/12/31 03:03:21;;;;;;;;;;;22.80;41.10;;;;;;5119567;28;19946;-57
2021/12/31 03:05:46;;;;;;;;;;;23.00;40.60;;;;;;5106781;28;19927;-61
2021/12/31 03:08:12;;;;;;;;;;;22.80;41.00;;;;;;5121129;28;19928;-55
2021/12/31 03:10:38;;;;;;;;;;;22.90;40.90;;;;;;5120169;28;19923;-61
2021/12/31 03:13:04;;;;;;;;;;;22.70;41.50;;;;;;5106763;28;20282;-62
2021/12/31 03:15:30;;;;;;;;;;;22.90;41.10;;;;;;5120164;28;19977;-60
2021/12/31 03:17:59;;;;;;;;;;;22.90;41.10;;;;;;5119409;28;20162;-61
2021/12/31 03:20:36;;;;;;;;;;;23.10;40.60;;;;;;5124620;28;19923;-61
2021/12/31 03:23:04;;;;;;;;;;;22.70;41.00;;;;;;5119779;28;19927;-62
2021/12/31 03:25:30;;;;;;;;;;;22.90;40.70;;;;;;5119888;28;20318;-63
2021/12/31 03:27:56;;;;;;;;;;;23.00;40.50;;;;;;5125400;28;20394;-62
2021/12/31 03:30:22;;;;;;;;;;;22.70;41.20;;;;;;5120024;28;20347;-62
2021/12/31 03:32:47;;;;;;;;;;;22.90;40.70;;;;;;5125013;28;19923;-60
2021/12/31 03:35:13;;;;;;;;;;;22.70;41.00;;;;;;5119726;28;19923;-61
2021/12/31 03:37:39;;;;;;;;;;;22.80;41.10;;;;;;5101245;28;20279;-53
2021/12/31 03:40:05;;;;;;;;;;;23.00;40.50;;;;;;5124647;28;19927;-63
2021/12/31 03:42:31;;;;;;;;;;;23.00;40.60;;;;;;5119914;28;19924;-62
2021/12/31 03:44:57;;;;;;;;;;;23.00;40.30;;;;;;5119461;28;19924;-63
2021/12/31 03:47:23;;;;;;;;;;;22.80;40.90;;;;;;5125135;28;20424;-52
2021/12/31 03:49:49;;;;;;;;;;;22.90;40.50;;;;;;5119262;28;20001;-59
2021/12/31 03:52:15;;;;;;;;;;;22.90;40.40;;;;;;5123719;28;19927;-62
2021/12/31 03:54:40;;;;;;;;;;;23.10;40.00;;;;;;5101456;28;19924;-62
2021/12/31 03:57:07;;;;;;;;;;;23.10;40.00;;;;;;5119587;28;19927;-58
2021/12/31 03:59:32;;;;;;;;;;;23.00;40.00;;;;;;5124716;28;20379;-58
2021/12/31 04:01:58;;;;;;;;;;;23.00;39.90;;;;;;5101113;28;19930;-58
2021/12/31 04:04:24;;;;;;;;;;;23.00;40.00;;;;;;5120100;27;19977;-62
2021/12/31 04:06:50;;;;;;;;;;;22.80;40.40;;;;;;5128499;28;20339;-60
2021/12/31 04:09:15;;;;;;;;;;;23.00;39.80;;;;;;5122869;28;19928;-60
2021/12/31 04:11:41;;;;;;;;;;;22.80;40.10;;;;;;5124617;28;19923;-59
2021/12/31 04:14:07;;;;;;;;;;;23.00;39.70;;;;;;5126462;28;20023;-59
2021/12/31 04:16:33;;;;;;;;;;;23.00;39.70;;;;;;5122086;28;19932;-57
2021/12/31 04:18:59;;;;;;;;;;;23.00;39.80;;;;;;5128210;28;19928;-62
2021/12/31 04:21:25;;;;;;;;;;;22.90;39.90;;;;;;5122872;28;20431;-59
2021/12/31 04:24:03;;;;;;;;;;;23.00;39.90;;;;;;5122801;28;19927;-63
2021/12/31 04:26:29;;;;;;;;;;;22.90;40.10;;;;;;5127791;28;20367;-59
2021/12/31 04:28:55;;;;;;;;;;;23.00;39.80;;;;;;5122553;28;19974;-61
2021/12/31 04:31:20;;;;;;;;;;;23.00;39.70;;;;;;5122207;28;20173;-60
2021/12/31 04:33:46;;;;;;;;;;;23.00;39.60;;;;;;5127679;28;19928;-59
2021/12/31 04:36:12;;;;;;;;;;;22.70;40.20;;;;;;5122462;28;20282;-61
2021/12/31 04:38:38;;;;;;;;;;;23.00;39.60;;;;;;5128031;28;20010;-61
2021/12/31 04:41:03;;;;;;;;;;;22.80;39.90;;;;;;5122712;28;19972;-60
2021/12/31 04:43:29;;;;;;;;;;;23.00;39.70;;;;;;5122590;28;20362;-61
2021/12/31 04:45:55;;;;;;;;;;;23.10;39.30;;;;;;5109246;28;19930;-63
2021/12/31 04:48:21;;;;;;;;;;;22.80;39.70;;;;;;5122159;28;20058;-61
2021/12/31 04:50:47;;;;;;;;;;;23.00;39.40;;;;;;5086711;28;20072;-61
2021/12/31 04:53:13;;;;;;;;;;;22.70;39.90;;;;;;5127071;28;19986;-63
2021/12/31 04:55:38;;;;;;;;;;;22.90;39.60;;;;;;5122196;28;20336;-57
2021/12/31 04:58:04;;;;;;;;;;;23.00;39.40;;;;;;5125778;28;20022;-62
2021/12/31 05:00:30;;;;;;;;;;;22.60;40.10;;;;;;5124378;28;19923;-60
2021/12/31 05:02:56;;;;;;;;;;;22.80;39.60;;;;;;5122126;28;20017;-60
2021/12/31 05:05:22;;;;;;;;;;;23.00;39.20;;;;;;5127425;28;20004;-60
2021/12/31 05:07:48;;;;;;;;;;;23.00;39.20;;;;;;5121589;28;19927;-59
2021/12/31 05:10:15;;;;;;;;;;;23.00;39.30;;;;;;5121463;28;20418;-62
2021/12/31 05:12:40;;;;;;;;;;;22.80;39.40;;;;;;5126916;28;19923;-61
2021/12/31 05:15:08;;;;;;;;;;;23.10;39.10;;;;;;5121966;28;19923;-56
2021/12/31 05:17:34;;;;;;;;;;;22.70;39.60;;;;;;5120721;27;19924;-62
2021/12/31 05:20:00;;;;;;;;;;;22.70;39.70;;;;;;5127031;28;19957;-62
2021/12/31 05:22:25;;;;;;;;;;;23.00;39.10;;;;;;5121225;28;19929;-59
2021/12/31 05:24:51;;;;;;;;;;;22.90;39.40;;;;;;5126984;28;19923;-60
2021/12/31 05:27:17;;;;;;;;;;;22.80;39.50;;;;;;5121150;28;20180;-54
2021/12/31 05:29:42;;;;;;;;;;;23.00;39.20;;;;;;5121099;28;19929;-60
2021/12/31 05:32:08;;;;;;;;;;;22.80;39.50;;;;;;5126704;28;19928;-62
2021/12/31 05:34:34;;;;;;;;;;;23.10;39.00;;;;;;5121825;28;19991;-53
2021/12/31 05:37:00;;;;;;;;;;;22.90;39.10;;;;;;5121630;28;20672;-61
2021/12/31 05:39:26;;;;;;;;;;;23.00;39.00;;;;;;5107857;28;20306;-60
2021/12/31 05:41:52;;;;;;;;;;;23.00;39.00;;;;;;5121241;28;19923;-62
2021/12/31 05:44:18;;;;;;;;;;;22.80;39.30;;;;;;5106476;28;19930;-58
2021/12/31 05:46:48;;;;;;;;;;;23.00;38.90;;;;;;5121144;28;19930;-62
2021/12/31 05:49:13;;;;;;;;;;;23.00;39.10;;;;;;5102406;28;19979;-62
2021/12/31 05:51:39;;;;;;;;;;;23.00;38.80;;;;;;5127077;28;19978;-63
2021/12/31 05:54:05;;;;;;;;;;;23.00;38.80;;;;;;5121260;28;19923;-59
2021/12/31 05:56:31;;;;;;;;;;;22.80;39.30;;;;;;5121289;28;19943;-58
2021/12/31 05:58:57;;;;;;;;;;;22.90;39.00;;;;;;5126472;28;19937;-61
2021/12/31 06:01:22;;;;;;;;;;;23.00;39.00;;;;;;5121297;28;20014;-53
2021/12/31 06:03:48;;;;;;;;;;;23.00;38.80;;;;;;5126310;28;19939;-60
2021/12/31 06:06:14;;;;;;;;;;;22.80;39.20;;;;;;5102534;28;19924;-61
2021/12/31 06:08:40;;;;;;;;;;;23.00;38.80;;;;;;5121057;28;19924;-62
2021/12/31 06:11:07;;;;;;;;;;;22.60;39.60;;;;;;5108320;28;20006;-61
2021/12/31 06:13:32;;;;;;;;;;;22.90;39.30;;;;;;5121000;28;19924;-60
2021/12/31 06:15:58;;;;;;;;;;;23.10;38.90;;;;;;5102887;28;20136;-60
2021/12/31 06:18:27;;;;;;;;;;;22.80;39.30;;;;;;5106384;28;19978;-62
2021/12/31 06:20:53;;;;;;;;;;;23.00;38.90;;;;;;5120687;28;19924;-60
2021/12/31 06:23:19;;;;;;;;;;;22.90;39.10;;;;;;5103624;28;20267;-60
2021/12/31 06:25:44;;;;;;;;;;;23.00;38.80;;;;;;5124144;28;20873;-60
2021/12/31 06:28:10;;;;;;;;;;;23.00;38.70;;;;;;5120283;27;19934;-60
2021/12/31 06:30:36;;;;;;;;;;;22.70;39.50;;;;;;5126066;28;19930;-61
2021/12/31 06:33:02;;;;;;;;;;;23.00;38.80;;;;;;5120830;28;20007;-60
2021/12/31 06:35:27;;;;;;;;;;;23.00;38.80;;;;;;5100931;28;20375;-61
2021/12/31 06:37:54;;;;;;;;;;;23.00;38.60;;;;;;5125904;28;20282;-60
2021/12/31 06:40:20;;;;;;;;;;;22.90;38.90;;;;;;5120166;28;19949;-61
2021/12/31 06:42:46;;;;;;;;;;;23.00;38.70;;;;;;5120621;28;20400;-57
2021/12/31 06:45:12;;;;;;;;;;;22.90;38.70;;;;;;5125385;28;20009;-63
2021/12/31 06:47:38;;;;;;;;;;;22.90;38.80;;;;;;5102519;28;19927;-58
2021/12/31 06:50:04;;;;;;;;;;;23.00;38.50;;;;;;5125648;28;19923;-62
2021/12/31 06:52:30;;;;;;;;;;;22.80;38.80;;;;;;5120352;28;19972;-60
2021/12/31 06:54:55;;;;;;;;;;;23.10;38.30;;;;;;5120397;28;19924;-61
2021/12/31 06:57:21;;;;;;;;;;;23.00;38.40;;;;;;5125734;28;19984;-62
2021/12/31 06:59:47;;;;;;;;;;;23.00;38.40;;;;;;5119882;28;20382;-60
2021/12/31 07:02:13;;;;;;;;;;;23.00;38.20;;;;;;5119676;28;19924;-62
2021/12/31 07:04:38;;;;;;;;;;;22.90;38.50;;;;;;5125621;28;19927;-58
2021/12/31 07:07:04;;;;;;;;;;;23.10;38.10;;;;;;5120415;28;19939;-62
2021/12/31 07:09:30;;;;;;;;;;;22.70;38.90;;;;;;5125589;28;19923;-61
2021/12/31 07:11:56;;;;;;;;;;;22.90;38.40;;;;;;5120333;28;19931;-51
2021/12/31 07:14:21;;;;;;;;;;;23.00;38.30;;;;;;5120016;28;20231;-63
2021/12/31 07:16:47;;;;;;;;;;;23.00;38.30;;;;;;5125294;28;19934;-60
2021/12/31 07:19:13;;;;;;;;;;;22.90;38.40;;;;;;5119752;28;19928;-59
2021/12/31 07:21:39;;;;;;;;;;;22.80;38.70;;;;;;5119249;28;20162;-61
2021/12/31 07:24:05;;;;;;;;;;;23.00;38.20;;;;;;5125648;28;19924;-61
2021/12/31 07:26:30;;;;;;;;;;;22.90;38.30;;;;;;5119884;28;19954;-61
2021/12/31 07:28:56;;;;;;;;;;;23.00;38.30;;;;;;5125260;28;19930;-61
2021/12/31 07:31:22;;;;;;;;;;;23.20;38.10;;;;;;5119843;28;20422;-52
2021/12/31 07:33:48;;;;;;;;;;;22.80;38.70;;;;;;5119696;28;19931;-60
2021/12/31 07:36:13;;;;;;;;;;;22.90;38.70;;;;;;5124739;28;20456;-62
2021/12/31 07:38:46;;;;;;;;;;;22.90;38.60;;;;;;5119089;27;19935;-60
2021/12/31 07:41:12;;;;;;;;;;;23.00;38.60;;;;;;5122960;28;19972;-52
2021/12/31 07:43:38;;;;;;;;;;;23.00;38.70;;;;;;5129001;28;19931;-59
2021/12/31 07:46:04;;;;;;;;;;;22.90;38.90;;;;;;5123341;28;20506;-61
2021/12/31 07:48:29;;;;;;;;;;;23.10;38.60;;;;;;5124433;28;19927;-60
2021/12/31 07:50:55;;;;;;;;;;;22.80;38.90;;;;;;5127374;28;19924;-59
2021/12/31 07:53:21;;;;;;;;;;;23.10;38.70;;;;;;5104885;28;19941;-63
2021/12/31 07:55:47;;;;;;;;;;;22.90;39.00;;;;;;5128256;28;19995;-53
2021/12/31 07:58:13;;;;;;;;;;;23.10;38.70;;;;;;5122613;28;20846;-60
2021/12/31 08:00:38;;;;;;;;;;;22.70;39.10;;;;;;5123077;28;19923;-60
2021/12/31 08:03:04;;;;;;;;;;;22.80;38.90;;;;;;5128509;28;19928;-61
2021/12/31 08:05:30;;;;;;;;;;;23.10;38.40;;;;;;5123709;28;19927;-56
2021/12/31 08:07:56;;;;;;;;;;;22.90;38.80;;;;;;5122699;28;19923;-61
2021/12/31 08:10:22;;;;;;;;;;;22.90;38.90;;;;;;5128169;28;19967;-63
2021/12/31 08:12:48;;;;;;;;;;;22.60;39.30;;;;;;5122787;28;19939;-60
2021/12/31 08:15:13;;;;;;;;;;;22.90;38.80;;;;;;5128027;28;20492;-57
2021/12/31 08:17:39;;;;;;;;;;;22.90;38.80;;;;;;5103855;28;19924;-61
2021/12/31 08:20:05;;;;;;;;;;;22.90;39.00;;;;;;5122992;28;20358;-59
2021/12/31 08:22:31;;;;;;;;;;;23.10;38.90;;;;;;5107840;28;19963;-62
2021/12/31 08:24:57;;;;;;;;;;;22.90;39.00;;;;;;5104233;28;19930;-60
2021/12/31 08:27:23;;;;;;;;;;;23.00;38.80;;;;;;5122326;28;20172;-65
2021/12/31 08:29:49;;;;;;;;;;;23.10;38.80;;;;;;5127992;28;19972;-59
2021/12/31 08:32:14;;;;;;;;;;;22.60;39.90;;;;;;5121955;28;19971;-61
2021/12/31 08:34:40;;;;;;;;;;;22.90;39.10;;;;;;5127372;28;19926;-51
2021/12/31 08:37:06;;;;;;;;;;;23.00;39.10;;;;;;5122521;28;19977;-62
2021/12/31 08:39:32;;;;;;;;;;;23.10;39.10;;;;;;5101997;28;19928;-59
2021/12/31 08:41:59;;;;;;;;;;;23.00;39.10;;;;;;5127708;28;20007;-59
2021/12/31 08:44:24;;;;;;;;;;;22.80;39.70;;;;;;5122381;28;19924;-60
2021/12/31 08:46:50;;;;;;;;;;;23.00;39.40;;;;;;5122333;28;20383;-61
2021/12/31 08:49:16;;;;;;;;;;;22.60;40.20;;;;;;5127290;28;19923;-61
2021/12/31 08:51:42;;;;;;;;;;;22.80;39.90;;;;;;5121710;27;19923;-60
2021/12/31 08:54:08;;;;;;;;;;;23.10;39.30;;;;;;5126775;28;19923;-58
2021/12/31 08:56:33;;;;;;;;;;;22.80;40.00;;;;;;5122532;28;20278;-62
2021/12/31 08:58:59;;;;;;;;;;;23.00;39.70;;;;;;5122531;28;20557;-60
2021/12/31 09:01:25;;;;;;;;;;;23.00;39.50;;;;;;5127480;28;19924;-54
2021/12/31 09:03:51;;;;;;;;;;;22.90;39.70;;;;;;5121874;28;19930;-62
2021/12/31 09:06:18;;;;;;;;;;;22.80;40.00;;;;;;5121890;28;20111;-55
2021/12/31 09:08:44;;;;;;;;;;;23.00;39.60;;;;;;5127337;28;20533;-61
2021/12/31 09:11:09;;;;;;;;;;;23.00;39.90;;;;;;5121271;28;19947;-60
2021/12/31 09:13:35;;;;;;;;;;;23.00;39.90;;;;;;5124616;28;19923;-60
2021/12/31 09:16:01;;;;;;;;;;;22.60;40.80;;;;;;5124956;28;19931;-61
2021/12/31 09:18:27;;;;;;;;;;;22.80;40.40;;;;;;5121616;28;19924;-55
2021/12/31 09:20:53;;;;;;;;;;;23.10;39.90;;;;;;5127079;28;19930;-60
2021/12/31 09:23:19;;;;;;;;;;;22.70;40.80;;;;;;5121212;28;19924;-62
2021/12/31 09:25:44;;;;;;;;;;;22.90;40.40;;;;;;5121534;28;19927;-60
2021/12/31 09:28:10;;;;;;;;;;;22.90;40.30;;;;;;5126685;28;19927;-60
2021/12/31 09:30:36;;;;;;;;;;;22.80;40.70;;;;;;5121018;28;19923;-59
2021/12/31 09:33:02;;;;;;;;;;;23.00;40.30;;;;;;5122406;28;19974;-61
2021/12/31 09:35:27;;;;;;;;;;;22.90;40.60;;;;;;5126367;28;19924;-63
2021/12/31 09:37:53;;;;;;;;;;;23.10;40.10;;;;;;5121484;28;20003;-63
2021/12/31 09:40:19;;;;;;;;;;;22.80;40.70;;;;;;5107721;28;19927;-61
2021/12/31 09:42:46;;;;;;;;;;;23.00;40.30;;;;;;5121276;28;19934;-61
2021/12/31 09:45:14;;;;;;;;;;;22.80;41.10;;;;;;5120938;28;19927;-62
2021/12/31 09:47:41;;;;;;;;;;;23.00;40.70;;;;;;5126503;28;20336;-60
2021/12/31 09:50:07;;;;;;;;;;;22.90;40.80;;;;;;5120799;28;19923;-60
2021/12/31 09:52:34;;;;;;;;;;;22.80;41.00;;;;;;5121386;28;19924;-61
2021/12/31 09:54:59;;;;;;;;;;;23.00;40.60;;;;;;5126646;28;19934;-61
2021/12/31 09:57:25;;;;;;;;;;;22.80;41.00;;;;;;5121483;28;19928;-58
2021/12/31 09:59:52;;;;;;;;;;;23.00;40.60;;;;;;5126156;28;19958;-61
2021/12/31 10:02:27;;;;;;;;;;;22.80;41.10;;;;;;5120277;27;20298;-61
2021/12/31 10:04:57;;;;;;;;;;;23.00;40.90;;;;;;5120819;28;19971;-63
2021/12/31 10:07:24;;;;;;;;;;;23.10;40.50;;;;;;5126035;28;19927;-61
2021/12/31 10:10:26;;;;;;;;;;;22.80;41.10;;;;;;5120997;28;20390;-61
2021/12/31 10:12:52;;;;;;;;;;;23.10;40.40;;;;;;5017460;28;19947;-60
2021/12/31 10:15:19;;;;;;;;;;;23.00;40.70;;;;;;5106083;28;20275;-62
2021/12/31 10:17:45;;;;;;;;;;;23.00;40.40;;;;;;5121097;28;20018;-61
2021/12/31 10:20:11;;;;;;;;;;;22.80;41.00;;;;;;5120581;28;19946;-60
2021/12/31 10:22:36;;;;;;;;;;;23.10;40.50;;;;;;5125853;28;20246;-59
2021/12/31 10:25:14;;;;;;;;;;;22.90;40.90;;;;;;5120816;28;20010;-61
2021/12/31 10:27:40;;;;;;;;;;;23.10;40.40;;;;;;5120437;28;19927;-61
2021/12/31 10:30:06;;;;;;;;;;;22.80;41.10;;;;;;5126560;28;20431;-62
2021/12/31 10:32:36;;;;;;;;;;;23.30;40.20;;;;;;5120737;28;20014;-59
2021/12/31 10:35:08;;;;;;;;;;;22.90;40.90;;;;;;5100714;28;19924;-63
2021/12/31 10:37:40;;;;;;;;;;;23.20;40.50;;;;;;5125795;28;20412;-61
2021/12/31 10:40:06;;;;;;;;;;;22.90;41.00;;;;;;5120295;28;20175;-61
2021/12/31 10:42:32;;;;;;;;;;;23.20;40.50;;;;;;5125321;28;20340;-61
2021/12/31 10:44:58;;;;;;;;;;;22.90;41.00;;;;;;5120702;28;20366;-60
2021/12/31 10:47:24;;;;;;;;;;;23.10;40.70;;;;;;5120562;28;19928;-63
2021/12/31 10:49:56;;;;;;;;;;;22.90;41.10;;;;;;5125828;28;19930;-62
2021/12/31 10:52:22;;;;;;;;;;;23.00;40.90;;;;;;5120539;28;19924;-54
2021/12/31 10:54:59;;;;;;;;;;;22.80;41.40;;;;;;5120176;28;20003;-62
2021/12/31 10:57:35;;;;;;;;;;;23.00;41.20;;;;;;5106737;28;19928;-61
2021/12/31 11:00:01;;;;;;;;;;;22.80;41.40;;;;;;5119958;28;19976;-63
2021/12/31 11:02:26;;;;;;;;;;;23.00;41.10;;;;;;5119962;28;19935;-62
2021/12/31 11:04:52;;;;;;;;;;;22.70;41.60;;;;;;5107013;28;19923;-52
2021/12/31 11:07:18;;;;;;;;;;;23.00;41.10;;;;;;5120478;28;19924;-62
2021/12/31 11:09:44;;;;;;;;;;;22.80;41.40;;;;;;5103851;28;19931;-59
2021/12/31 11:12:10;;;;;;;;;;;22.90;41.20;;;;;;5104075;28;19927;-59
2021/12/31 11:14:37;;;;;;;;;;;23.10;40.90;;;;;;5100999;28;19924;-63
2021/12/31 11:17:03;;;;;;;;;;;22.80;41.50;;;;;;5129084;28;19967;-62
2021/12/31 11:19:28;;;;;;;;;;;23.10;41.10;;;;;;5123337;28;20421;-62
2021/12/31 11:21:54;;;;;;;;;;;22.80;41.70;;;;;;5123002;28;19931;-61
2021/12/31 11:24:27;;;;;;;;;;;23.00;41.30;;;;;;5110626;28;19972;-61
2021/12/31 11:26:53;;;;;;;;;;;22.80;41.80;;;;;;5123564;28;19930;-60
2021/12/31 11:29:19;;;;;;;;;;;23.00;41.10;;;;;;5123678;28;20476;-63
2021/12/31 11:31:44;;;;;;;;;;;22.80;41.50;;;;;;5128732;28;19935;-58
2021/12/31 11:34:12;;;;;;;;;;;23.00;41.30;;;;;;5123417;28;19927;-60
2021/12/31 11:36:42;;;;;;;;;;;22.80;41.40;;;;;;5110322;28;19976;-56
2021/12/31 11:39:15;;;;;;;;;;;23.00;41.40;;;;;;5123489;28;19923;-63
2021/12/31 11:41:41;;;;;;;;;;;22.80;41.70;;;;;;5123066;28;19974;-59
2021/12/31 11:44:07;;;;;;;;;;;23.00;41.40;;;;;;5129232;28;19923;-62
2021/12/31 11:46:43;;;;;;;;;;;22.70;42.00;;;;;;5104801;28;20348;-58
2021/12/31 11:49:09;;;;;;;;;;;22.90;41.60;;;;;;5123364;28;20446;-60
2021/12/31 11:51:36;;;;;;;;;;;22.70;42.00;;;;;;5128263;28;20335;-62
2021/12/31 11:54:03;;;;;;;;;;;22.90;41.60;;;;;;5123243;28;19967;-61
2021/12/31 11:56:32;;;;;;;;;;;23.10;41.20;;;;;;5122768;28;19930;-59
2021/12/31 11:58:58;;;;;;;;;;;22.90;41.70;;;;;;5128044;28;20339;-59
2021/12/31 12:01:36;;;;;;;;;;;22.90;41.60;;;;;;5104633;28;20324;-62
2021/12/31 12:04:20;;;;;;;;;;;22.90;41.70;;;;;;5122961;28;20387;-61
2021/12/31 12:06:56;;;;;;;;;;;22.90;41.60;;;;;;5128512;28;19923;-63
2021/12/31 12:09:22;;;;;;;;;;;23.00;41.40;;;;;;5122898;28;19963;-61
2021/12/31 12:12:00;;;;;;;;;;;22.80;41.90;;;;;;5122661;28;19927;-59
2021/12/31 12:14:29;;;;;;;;;;;23.00;41.50;;;;;;5127854;28;19927;-60
2021/12/31 12:16:57;;;;;;;;;;;22.70;42.10;;;;;;5122224;28;19923;-60
2021/12/31 12:19:55;;;;;;;;;;;23.00;41.70;;;;;;5125337;28;19976;-60
2021/12/31 12:22:33;;;;;;;;;;;22.80;41.90;;;;;;5071275;28;19923;-61
2021/12/31 12:25:10;;;;;;;;;;;23.20;41.30;;;;;;5122354;27;19923;-62
2021/12/31 12:27:36;;;;;;;;;;;22.80;42.10;;;;;;5122806;28;20443;-62
2021/12/31 12:30:09;;;;;;;;;;;23.10;41.50;;;;;;5127977;28;19927;-63
2021/12/31 12:32:51;;;;;;;;;;;22.90;41.90;;;;;;5104224;28;19931;-61
2021/12/31 12:35:29;;;;;;;;;;;23.20;41.20;;;;;;5122154;28;20035;-59
2021/12/31 12:37:55;;;;;;;;;;;22.90;41.60;;;;;;5128022;28;19931;-61
2021/12/31 12:40:40;;;;;;;;;;;23.10;41.20;;;;;;5122112;28;21195;-63
2021/12/31 12:43:08;;;;;;;;;;;22.80;41.80;;;;;;5122399;28;19931;-60
2021/12/31 12:45:37;;;;;;;;;;;23.10;41.20;;;;;;5127735;28;19941;-61
2021/12/31 12:48:03;;;;;;;;;;;23.00;41.40;;;;;;5122232;28;19923;-62
2021/12/31 12:50:29;;;;;;;;;;;23.00;41.50;;;;;;5122075;28;19937;-61
2021/12/31 12:52:55;;;;;;;;;;;22.80;42.10;;;;;;5127366;28;19927;-62
2021/12/31 12:55:20;;;;;;;;;;;23.20;41.40;;;;;;5122007;28;19923;-59
2021/12/31 12:57:53;;;;;;;;;;;22.80;42.30;;;;;;5128003;28;19923;-63
2021/12/31 13:00:29;;;;;;;;;;;23.00;41.90;;;;;;5122252;28;19995;-61
2021/12/31 13:02:56;;;;;;;;;;;22.80;42.30;;;;;;5122115;28;19927;-59
2021/12/31 13:05:22;;;;;;;;;;;23.00;41.70;;;;;;5108938;28;19923;-57
2021/12/31 13:07:51;;;;;;;;;;;22.80;42.20;;;;;;5102332;28;20294;-57
2021/12/31 13:10:17;;;;;;;;;;;23.10;41.80;;;;;;5103620;28;19955;-55
2021/12/31 13:12:42;;;;;;;;;;;22.80;42.20;;;;;;5108304;28;19927;-58
2021/12/31 13:15:09;;;;;;;;;;;23.00;42.00;;;;;;5121687;28;20825;-57
2021/12/31 13:17:36;;;;;;;;;;;22.80;42.40;;;;;;5121831;28;19931;-61
2021/12/31 13:20:06;;;;;;;;;;;22.90;42.30;;;;;;5127153;28;19930;-60
2021/12/31 13:22:32;;;;;;;;;;;22.80;42.60;;;;;;5121680;28;20002;-59
2021/12/31 13:24:58;;;;;;;;;;;22.90;42.50;;;;;;5127068;28;20018;-63
2021/12/31 13:27:24;;;;;;;;;;;23.10;41.80;;;;;;5121676;28;19927;-60
2021/12/31 13:30:00;;;;;;;;;;;23.00;42.10;;;;;;5121511;28;19923;-61
2021/12/31 13:32:34;;;;;;;;;;;23.10;42.00;;;;;;5126432;28;20565;-62
2021/12/31 13:35:03;;;;;;;;;;;23.00;42.30;;;;;;5103380;28;19971;-58
2021/12/31 13:37:34;;;;;;;;;;;22.80;42.70;;;;;;5120284;27;19935;-59
2021/12/31 13:40:07;;;;;;;;;;;23.00;42.40;;;;;;5126907;28;19978;-60
2021/12/31 13:42:34;;;;;;;;;;;23.10;42.20;;;;;;5103043;28;19923;-62
2021/12/31 13:44:59;;;;;;;;;;;23.10;42.30;;;;;;5121352;28;19927;-61
2021/12/31 13:47:26;;;;;;;;;;;22.80;42.80;;;;;;5107419;28;19928;-60
2021/12/31 13:49:58;;;;;;;;;;;23.10;42.40;;;;;;5120811;28;19927;-60
2021/12/31 13:52:25;;;;;;;;;;;22.80;42.70;;;;;;5121526;28;19927;-58
2021/12/31 13:54:52;;;;;;;;;;;23.00;42.50;;;;;;5126718;28;20355;-59
2021/12/31 13:57:18;;;;;;;;;;;22.70;43.30;;;;;;5121135;28;19923;-56
2021/12/31 13:59:44;;;;;;;;;;;23.00;42.70;;;;;;5108296;28;19946;-61
2021/12/31 14:02:24;;;;;;;;;;;23.00;42.80;;;;;;5121214;28;20378;-62
2021/12/31 14:04:53;;;;;;;;;;;23.00;42.90;;;;;;5102872;28;19976;-62
2021/12/31 14:07:21;;;;;;;;;;;23.00;42.60;;;;;;5126142;28;20022;-60
2021/12/31 14:09:48;;;;;;;;;;;23.00;42.80;;;;;;5120564;28;19927;-61
2021/12/31 14:12:13;;;;;;;;;;;23.20;42.30;;;;;;5121147;28;19949;-60
2021/12/31 14:14:42;;;;;;;;;;;22.80;43.00;;;;;;5125923;28;19923;-63
2021/12/31 14:17:08;;;;;;;;;;;23.20;42.40;;;;;;5121010;28;19924;-61
2021/12/31 14:19:34;;;;;;;;;;;22.90;43.10;;;;;;5120468;28;19933;-61